RYR7WK EGHH-LEPA
Flight info
| Callsign | RYR7WK |
|---|---|
| Flight time | 2h 5m |
| Altitude | 36000 |
| Route | SAM Y8 GWC UN859 SOPIL DCT BALAN DCT EVPOK DCT NARAK DCT GAI DCT LOMRA DCT ROCAN DCT IBRAP N13 LORES |
| Aircraft | B738/M-SDE2E3FGHIRWXY/LB1 |
Departure
| Time | 2026-05-04 15:55 |
|---|---|
| Airport | Bournemouth Airport (EGHH) |
Arrival
| Time | 2026-05-04 18:00 |
|---|---|
| Airport | Palma de Mallorca Airport (LEPA) |
| Time | Latitude | Longitude | Altitude | Speed | Heading |
|---|---|---|---|---|---|
| 2026-05-04 15:36 | 50.77767 | -1.83378 | 45 ft | 0 kts | 87° |
| 2026-05-04 15:45 | 50.77766 | -1.83387 | 45 ft | 2 kts | 86° |
| 2026-05-04 15:45 | 50.77765 | -1.83411 | 45 ft | 2 kts | 85° |
| 2026-05-04 15:45 | 50.77765 | -1.83416 | 45 ft | 0 kts | 85° |
| 2026-05-04 15:46 | 50.77764 | -1.83438 | 45 ft | 2 kts | 75° |
| 2026-05-04 15:46 | 50.77757 | -1.83461 | 45 ft | 2 kts | 41° |
| 2026-05-04 15:47 | 50.77750 | -1.83469 | 45 ft | 0 kts | 9° |
| 2026-05-04 15:51 | 50.77753 | -1.83468 | 45 ft | 5 kts | 9° |
| 2026-05-04 15:51 | 50.77800 | -1.83467 | 45 ft | 7 kts | 358° |
| 2026-05-04 15:51 | 50.77849 | -1.83473 | 43 ft | 7 kts | 352° |
| 2026-05-04 15:52 | 50.77896 | -1.83483 | 45 ft | 7 kts | 349° |
| 2026-05-04 15:52 | 50.77954 | -1.83487 | 45 ft | 9 kts | 14° |
| 2026-05-04 15:52 | 50.78002 | -1.83424 | 45 ft | 9 kts | 55° |
| 2026-05-04 15:52 | 50.78033 | -1.83338 | 43 ft | 9 kts | 65° |
| 2026-05-04 15:53 | 50.78059 | -1.83248 | 45 ft | 9 kts | 65° |
| 2026-05-04 15:53 | 50.78090 | -1.83169 | 45 ft | 8 kts | 54° |
| 2026-05-04 15:53 | 50.78123 | -1.83093 | 45 ft | 8 kts | 58° |
| 2026-05-04 15:53 | 50.78166 | -1.83039 | 44 ft | 8 kts | 12° |
| 2026-05-04 15:54 | 50.78196 | -1.83102 | 43 ft | 8 kts | 267° |
| 2026-05-04 15:54 | 50.78143 | -1.83436 | 45 ft | 69 kts | 255° |
| 2026-05-04 15:54 | 50.77949 | -1.84586 | 45 ft | 145 kts | 254° |
| 2026-05-04 15:54 | 50.77682 | -1.86299 | 599 ft | 165 kts | 256° |
| 2026-05-04 15:55 | 50.77857 | -1.88094 | 1671 ft | 175 kts | 298° |
| 2026-05-04 15:55 | 50.78726 | -1.89487 | 2735 ft | 181 kts | 331° |
| 2026-05-04 15:55 | 50.79978 | -1.90047 | 3503 ft | 202 kts | 0° |
| 2026-05-04 15:55 | 50.81479 | -1.89607 | 3819 ft | 241 kts | 24° |
| 2026-05-04 15:56 | 50.82924 | -1.88164 | 4693 ft | 248 kts | 43° |
| 2026-05-04 15:56 | 50.83929 | -1.86139 | 6215 ft | 223 kts | 62° |
| 2026-05-04 15:56 | 50.84464 | -1.83683 | 6570 ft | 251 kts | 86° |
| 2026-05-04 15:56 | 50.84315 | -1.80812 | 6695 ft | 269 kts | 98° |
| 2026-05-04 15:57 | 50.84139 | -1.78817 | 6690 ft | 274 kts | 97° |
| 2026-05-04 15:57 | 50.83970 | -1.75849 | 6689 ft | 273 kts | 92° |
| 2026-05-04 15:57 | 50.84045 | -1.72865 | 6792 ft | 273 kts | 83° |
| 2026-05-04 15:57 | 50.84398 | -1.69909 | 7487 ft | 275 kts | 76° |
| 2026-05-04 15:58 | 50.84957 | -1.66990 | 8330 ft | 279 kts | 72° |
| 2026-05-04 15:58 | 50.85668 | -1.64103 | 9193 ft | 283 kts | 69° |
| 2026-05-04 15:58 | 50.86415 | -1.61184 | 10024 ft | 288 kts | 78° |
| 2026-05-04 15:58 | 50.86569 | -1.57969 | 10543 ft | 303 kts | 93° |
| 2026-05-04 15:59 | 50.86486 | -1.54485 | 10774 ft | 329 kts | 94° |
| 2026-05-04 15:59 | 50.86384 | -1.50836 | 11339 ft | 340 kts | 94° |
| 2026-05-04 15:59 | 50.86297 | -1.47070 | 12125 ft | 344 kts | 93° |
| 2026-05-04 15:59 | 50.86229 | -1.43260 | 12972 ft | 349 kts | 93° |
| 2026-05-04 16:00 | 50.86176 | -1.39398 | 13731 ft | 354 kts | 92° |
| 2026-05-04 16:00 | 50.86133 | -1.35467 | 14403 ft | 358 kts | 92° |
| 2026-05-04 16:00 | 50.86095 | -1.31519 | 15114 ft | 361 kts | 92° |
| 2026-05-04 16:00 | 50.86059 | -1.27537 | 15822 ft | 363 kts | 92° |
| 2026-05-04 16:01 | 50.86023 | -1.23512 | 16514 ft | 367 kts | 92° |
| 2026-05-04 16:01 | 50.85986 | -1.19445 | 17197 ft | 371 kts | 92° |
| 2026-05-04 16:01 | 50.85947 | -1.15347 | 17878 ft | 374 kts | 92° |
| 2026-05-04 16:01 | 50.85907 | -1.11206 | 18519 ft | 378 kts | 92° |
| 2026-05-04 16:02 | 50.85864 | -1.07026 | 19081 ft | 382 kts | 92° |
| 2026-05-04 16:02 | 50.85820 | -1.02785 | 19646 ft | 386 kts | 92° |
| 2026-05-04 16:02 | 50.85725 | -0.94213 | 20757 ft | 395 kts | 93° |
| 2026-05-04 16:03 | 50.85676 | -0.89838 | 21298 ft | 399 kts | 93° |
| 2026-05-04 16:03 | 50.85623 | -0.85429 | 21851 ft | 402 kts | 94° |
| 2026-05-04 16:03 | 50.85512 | -0.80985 | 22365 ft | 405 kts | 101° |
| 2026-05-04 16:03 | 50.85492 | -0.80744 | 22378 ft | 405 kts | 102° |
| 2026-05-04 16:04 | 50.84560 | -0.76533 | 22869 ft | 401 kts | 124° |
| 2026-05-04 16:04 | 50.80650 | -0.70522 | 23920 ft | 396 kts | 149° |
| 2026-05-04 16:04 | 50.78325 | -0.68170 | 24376 ft | 398 kts | 150° |
| 2026-05-04 16:05 | 50.75969 | -0.65838 | 24820 ft | 400 kts | 151° |
| 2026-05-04 16:05 | 50.73599 | -0.63495 | 25267 ft | 402 kts | 150° |
| 2026-05-04 16:05 | 50.68849 | -0.58755 | 26152 ft | 406 kts | 150° |
| 2026-05-04 16:06 | 50.66483 | -0.56375 | 26569 ft | 408 kts | 150° |
| 2026-05-04 16:06 | 50.60061 | -0.49893 | 27678 ft | 413 kts | 150° |
| 2026-05-04 16:07 | 50.56806 | -0.46611 | 28179 ft | 417 kts | 150° |
| 2026-05-04 16:07 | 50.49416 | -0.39178 | 29279 ft | 424 kts | 150° |
| 2026-05-04 16:08 | 50.46924 | -0.36679 | 29619 ft | 426 kts | 151° |
| 2026-05-04 16:08 | 50.39412 | -0.29161 | 30706 ft | 427 kts | 150° |
| 2026-05-04 16:09 | 50.34447 | -0.24205 | 31585 ft | 422 kts | 150° |
| 2026-05-04 16:09 | 50.29478 | -0.19263 | 32247 ft | 422 kts | 150° |
| 2026-05-04 16:10 | 50.24531 | -0.14353 | 33038 ft | 419 kts | 149° |
| 2026-05-04 16:11 | 50.17147 | -0.07046 | 34048 ft | 418 kts | 149° |
| 2026-05-04 16:11 | 50.14685 | -0.04617 | 34282 ft | 419 kts | 149° |
| 2026-05-04 16:12 | 50.07064 | 0.01308 | 34879 ft | 418 kts | 167° |
| 2026-05-04 16:12 | 49.98551 | 0.04545 | 35486 ft | 421 kts | 167° |
| 2026-05-04 16:13 | 49.92858 | 0.06733 | 35983 ft | 420 kts | 167° |
| 2026-05-04 16:13 | 49.87126 | 0.08968 | 35984 ft | 426 kts | 167° |
| 2026-05-04 16:14 | 49.75739 | 0.13412 | 35989 ft | 419 kts | 167° |
| 2026-05-04 16:16 | 49.61636 | 0.18978 | 35994 ft | 418 kts | 167° |
| 2026-05-04 16:17 | 49.47569 | 0.24685 | 36009 ft | 420 kts | 167° |
| 2026-05-04 16:18 | 49.36141 | 0.29279 | 35968 ft | 428 kts | 167° |
| 2026-05-04 16:19 | 49.27656 | 0.32717 | 35964 ft | 417 kts | 166° |
| 2026-05-04 16:19 | 49.23279 | 0.34565 | 35974 ft | 418 kts | 166° |
| 2026-05-04 16:20 | 49.09231 | 0.40480 | 35966 ft | 420 kts | 166° |
| 2026-05-04 16:22 | 48.95082 | 0.46377 | 35960 ft | 421 kts | 166° |
| 2026-05-04 16:23 | 48.78159 | 0.53383 | 35955 ft | 419 kts | 167° |
| 2026-05-04 16:25 | 48.61265 | 0.59971 | 35960 ft | 417 kts | 167° |
| 2026-05-04 16:26 | 48.41436 | 0.67864 | 35948 ft | 422 kts | 167° |
| 2026-05-04 16:28 | 48.27404 | 0.73551 | 35939 ft | 415 kts | 167° |
| 2026-05-04 16:29 | 48.07930 | 0.81235 | 35940 ft | 413 kts | 167° |
| 2026-05-04 16:31 | 47.94056 | 0.86665 | 35919 ft | 414 kts | 168° |
| 2026-05-04 16:32 | 47.77278 | 0.93186 | 35933 ft | 416 kts | 168° |
| 2026-05-04 16:33 | 47.66094 | 0.97503 | 35928 ft | 416 kts | 168° |
| 2026-05-04 16:34 | 47.59591 | 1.00005 | 35925 ft | 415 kts | 168° |
| 2026-05-04 16:35 | 47.43869 | 1.05969 | 35921 ft | 410 kts | 172° |
| 2026-05-04 16:36 | 47.35419 | 1.06296 | 35914 ft | 404 kts | 183° |
| 2026-05-04 16:37 | 47.27020 | 1.06047 | 35921 ft | 403 kts | 183° |
| 2026-05-04 16:38 | 47.16733 | 1.05813 | 35917 ft | 403 kts | 183° |
| 2026-05-04 16:39 | 47.02726 | 1.05503 | 35917 ft | 403 kts | 183° |
| 2026-05-04 16:40 | 46.91518 | 1.05032 | 35918 ft | 403 kts | 184° |
| 2026-05-04 16:41 | 46.77505 | 1.04412 | 35907 ft | 403 kts | 184° |
| 2026-05-04 16:43 | 46.63532 | 1.03811 | 35907 ft | 402 kts | 184° |
| 2026-05-04 16:43 | 46.55137 | 1.03451 | 35900 ft | 402 kts | 184° |
| 2026-05-04 16:44 | 46.44097 | 1.05746 | 35902 ft | 405 kts | 170° |
| 2026-05-04 16:45 | 46.38614 | 1.07623 | 35908 ft | 404 kts | 170° |
| 2026-05-04 16:46 | 46.24945 | 1.12198 | 35907 ft | 403 kts | 170° |
| 2026-05-04 16:47 | 46.14010 | 1.15824 | 35908 ft | 403 kts | 170° |
| 2026-05-04 16:48 | 46.03071 | 1.19436 | 35891 ft | 402 kts | 170° |
| 2026-05-04 16:49 | 45.92255 | 1.22993 | 35906 ft | 402 kts | 170° |
| 2026-05-04 16:50 | 45.81358 | 1.26563 | 35911 ft | 403 kts | 170° |
| 2026-05-04 16:51 | 45.73145 | 1.29244 | 35912 ft | 404 kts | 170° |
| 2026-05-04 16:52 | 45.63170 | 1.32490 | 35909 ft | 404 kts | 171° |
| 2026-05-04 16:53 | 45.54920 | 1.35166 | 35898 ft | 404 kts | 171° |
| 2026-05-04 16:54 | 45.43925 | 1.38720 | 35904 ft | 404 kts | 171° |
| 2026-05-04 16:55 | 45.27512 | 1.43999 | 35923 ft | 403 kts | 171° |
| 2026-05-04 16:56 | 45.13893 | 1.48357 | 35939 ft | 402 kts | 171° |
| 2026-05-04 16:57 | 45.05722 | 1.50962 | 35941 ft | 401 kts | 171° |
| 2026-05-04 16:58 | 44.94875 | 1.54408 | 35898 ft | 400 kts | 171° |
| 2026-05-04 17:00 | 44.78704 | 1.59519 | 35912 ft | 401 kts | 171° |
| 2026-05-04 17:01 | 44.65070 | 1.63807 | 35914 ft | 402 kts | 171° |
| 2026-05-04 17:02 | 44.54129 | 1.67233 | 35921 ft | 404 kts | 171° |
| 2026-05-04 17:03 | 44.45883 | 1.69807 | 35921 ft | 405 kts | 171° |
| 2026-05-04 17:03 | 44.37677 | 1.72361 | 35904 ft | 405 kts | 171° |
| 2026-05-04 17:04 | 44.26693 | 1.75614 | 35920 ft | 402 kts | 174° |
| 2026-05-04 17:05 | 44.15677 | 1.77961 | 35919 ft | 400 kts | 175° |
| 2026-05-04 17:06 | 44.07448 | 1.79757 | 35925 ft | 399 kts | 175° |
| 2026-05-04 17:07 | 44.00120 | 1.81366 | 35909 ft | 400 kts | 175° |
| 2026-05-04 17:07 | 43.93718 | 1.82633 | 35923 ft | 399 kts | 179° |
| 2026-05-04 17:08 | 43.85417 | 1.83415 | 35921 ft | 400 kts | 180° |
| 2026-05-04 17:09 | 43.79856 | 1.83923 | 35909 ft | 400 kts | 180° |
| 2026-05-04 17:09 | 43.74315 | 1.84451 | 35922 ft | 401 kts | 180° |
| 2026-05-04 17:10 | 43.60316 | 1.85806 | 35912 ft | 403 kts | 180° |
| 2026-05-04 17:11 | 43.54706 | 1.86348 | 35923 ft | 404 kts | 180° |
| 2026-05-04 17:12 | 43.46334 | 1.87154 | 35914 ft | 404 kts | 180° |
| 2026-05-04 17:13 | 43.32345 | 1.88497 | 35925 ft | 402 kts | 180° |
| 2026-05-04 17:14 | 43.21168 | 1.89572 | 35906 ft | 402 kts | 180° |
| 2026-05-04 17:15 | 43.12808 | 1.90374 | 35923 ft | 401 kts | 180° |
| 2026-05-04 17:16 | 43.01678 | 1.91437 | 35912 ft | 400 kts | 181° |
| 2026-05-04 17:17 | 42.90629 | 1.92490 | 35929 ft | 399 kts | 181° |
| 2026-05-04 17:18 | 42.79503 | 1.93545 | 35927 ft | 400 kts | 181° |
| 2026-05-04 17:19 | 42.69293 | 1.94511 | 35920 ft | 402 kts | 181° |
| 2026-05-04 17:19 | 42.64386 | 1.95651 | 35935 ft | 407 kts | 170° |
| 2026-05-04 17:20 | 42.58937 | 1.97684 | 35930 ft | 406 kts | 171° |
| 2026-05-04 17:20 | 42.50855 | 2.00634 | 35929 ft | 407 kts | 171° |
| 2026-05-04 17:21 | 42.39869 | 2.04583 | 35917 ft | 411 kts | 171° |
| 2026-05-04 17:22 | 42.34315 | 2.06571 | 35919 ft | 413 kts | 172° |
| 2026-05-04 17:23 | 42.24111 | 2.10189 | 35930 ft | 414 kts | 172° |
| 2026-05-04 17:24 | 42.15751 | 2.13147 | 35923 ft | 413 kts | 172° |
| 2026-05-04 17:25 | 42.04679 | 2.17054 | 35931 ft | 411 kts | 172° |
| 2026-05-04 17:26 | 41.93669 | 2.20925 | 35932 ft | 408 kts | 172° |
| 2026-05-04 17:27 | 41.79931 | 2.25736 | 35941 ft | 408 kts | 172° |
| 2026-05-04 17:28 | 41.69052 | 2.29539 | 35257 ft | 396 kts | 173° |
| 2026-05-04 17:29 | 41.61159 | 2.32292 | 34195 ft | 386 kts | 173° |
| 2026-05-04 17:29 | 41.53456 | 2.34967 | 32978 ft | 377 kts | 173° |
| 2026-05-04 17:30 | 41.45947 | 2.37571 | 31934 ft | 366 kts | 173° |
| 2026-05-04 17:31 | 41.41041 | 2.39268 | 31250 ft | 361 kts | 173° |
| 2026-05-04 17:31 | 41.33849 | 2.41751 | 30240 ft | 354 kts | 172° |
| 2026-05-04 17:32 | 41.29114 | 2.43383 | 29479 ft | 348 kts | 173° |
| 2026-05-04 17:33 | 41.22175 | 2.45773 | 28424 ft | 338 kts | 173° |
| 2026-05-04 17:33 | 41.19935 | 2.46543 | 28102 ft | 335 kts | 173° |
| 2026-05-04 17:34 | 41.13231 | 2.48842 | 27072 ft | 327 kts | 173° |
| 2026-05-04 17:34 | 41.11033 | 2.49595 | 26744 ft | 325 kts | 173° |
| 2026-05-04 17:35 | 41.04557 | 2.51810 | 25775 ft | 318 kts | 174° |
| 2026-05-04 17:35 | 41.00270 | 2.53272 | 25142 ft | 318 kts | 174° |
| 2026-05-04 17:35 | 40.98127 | 2.54001 | 24830 ft | 321 kts | 173° |
| 2026-05-04 17:36 | 40.95921 | 2.54747 | 24514 ft | 330 kts | 173° |
| 2026-05-04 17:36 | 40.93674 | 2.55508 | 24153 ft | 334 kts | 173° |
| 2026-05-04 17:36 | 40.91429 | 2.56274 | 23817 ft | 332 kts | 173° |
| 2026-05-04 17:36 | 40.89220 | 2.57029 | 23482 ft | 331 kts | 173° |
| 2026-05-04 17:37 | 40.86993 | 2.57790 | 23066 ft | 330 kts | 173° |
| 2026-05-04 17:37 | 40.84753 | 2.58553 | 22703 ft | 327 kts | 173° |
| 2026-05-04 17:37 | 40.82584 | 2.59292 | 22370 ft | 325 kts | 173° |
| 2026-05-04 17:37 | 40.80402 | 2.60034 | 22033 ft | 322 kts | 173° |
| 2026-05-04 17:38 | 40.78238 | 2.60768 | 21706 ft | 320 kts | 173° |
| 2026-05-04 17:38 | 40.76083 | 2.61499 | 21444 ft | 318 kts | 173° |
| 2026-05-04 17:38 | 40.73938 | 2.62218 | 21223 ft | 336 kts | 173° |
| 2026-05-04 17:38 | 40.71599 | 2.62996 | 20899 ft | 354 kts | 172° |
| 2026-05-04 17:39 | 40.66869 | 2.64602 | 20091 ft | 350 kts | 172° |
| 2026-05-04 17:39 | 40.64516 | 2.65403 | 19699 ft | 348 kts | 172° |
| 2026-05-04 17:39 | 40.62178 | 2.66196 | 19312 ft | 346 kts | 172° |
| 2026-05-04 17:40 | 40.59847 | 2.66984 | 18935 ft | 344 kts | 172° |
| 2026-05-04 17:40 | 40.57537 | 2.67763 | 18527 ft | 342 kts | 171° |
| 2026-05-04 17:40 | 40.55226 | 2.68541 | 18138 ft | 341 kts | 171° |
| 2026-05-04 17:40 | 40.52927 | 2.69315 | 17698 ft | 340 kts | 171° |
| 2026-05-04 17:41 | 40.50642 | 2.70086 | 17293 ft | 338 kts | 170° |
| 2026-05-04 17:41 | 40.48423 | 2.71208 | 16664 ft | 349 kts | 158° |
| 2026-05-04 17:41 | 40.46291 | 2.72761 | 16201 ft | 350 kts | 155° |
| 2026-05-04 17:41 | 40.44187 | 2.74356 | 15768 ft | 349 kts | 155° |
| 2026-05-04 17:42 | 40.42116 | 2.75920 | 15381 ft | 346 kts | 155° |
| 2026-05-04 17:42 | 40.40031 | 2.77471 | 14998 ft | 343 kts | 155° |
| 2026-05-04 17:42 | 40.37952 | 2.78998 | 14672 ft | 339 kts | 156° |
| 2026-05-04 17:42 | 40.35915 | 2.80482 | 14433 ft | 332 kts | 156° |
| 2026-05-04 17:43 | 40.33905 | 2.81938 | 14197 ft | 326 kts | 156° |
| 2026-05-04 17:43 | 40.31929 | 2.83364 | 13969 ft | 320 kts | 156° |
| 2026-05-04 17:43 | 40.29987 | 2.84764 | 13657 ft | 317 kts | 156° |
| 2026-05-04 17:43 | 40.28060 | 2.86151 | 13310 ft | 315 kts | 156° |
| 2026-05-04 17:44 | 40.26170 | 2.87510 | 12980 ft | 312 kts | 156° |
| 2026-05-04 17:44 | 40.24277 | 2.88871 | 12660 ft | 309 kts | 156° |
| 2026-05-04 17:44 | 40.22403 | 2.90218 | 12350 ft | 307 kts | 156° |
| 2026-05-04 17:44 | 40.20503 | 2.91427 | 12001 ft | 299 kts | 168° |
| 2026-05-04 17:45 | 40.18490 | 2.91839 | 11731 ft | 290 kts | 180° |
| 2026-05-04 17:45 | 40.16488 | 2.91999 | 11436 ft | 287 kts | 181° |
| 2026-05-04 17:45 | 40.14505 | 2.92126 | 11178 ft | 283 kts | 182° |
| 2026-05-04 17:45 | 40.12547 | 2.92196 | 10913 ft | 279 kts | 184° |
| 2026-05-04 17:46 | 40.10616 | 2.92231 | 10654 ft | 277 kts | 184° |
| 2026-05-04 17:46 | 40.08695 | 2.92259 | 10363 ft | 275 kts | 184° |
| 2026-05-04 17:46 | 40.06782 | 2.92285 | 10085 ft | 274 kts | 184° |
| 2026-05-04 17:46 | 40.04878 | 2.92310 | 9799 ft | 273 kts | 184° |
| 2026-05-04 17:47 | 40.02989 | 2.92337 | 9491 ft | 271 kts | 184° |
| 2026-05-04 17:47 | 40.01109 | 2.92361 | 9180 ft | 270 kts | 184° |
| 2026-05-04 17:47 | 39.99238 | 2.92382 | 8864 ft | 269 kts | 184° |
| 2026-05-04 17:47 | 39.97379 | 2.92403 | 8561 ft | 267 kts | 184° |
| 2026-05-04 17:48 | 39.95539 | 2.92431 | 8266 ft | 266 kts | 184° |
| 2026-05-04 17:48 | 39.93680 | 2.92461 | 7966 ft | 265 kts | 184° |
| 2026-05-04 17:48 | 39.91835 | 2.92491 | 7668 ft | 264 kts | 184° |
| 2026-05-04 17:48 | 39.89999 | 2.92518 | 7353 ft | 264 kts | 184° |
| 2026-05-04 17:49 | 39.88154 | 2.92537 | 7023 ft | 265 kts | 184° |
| 2026-05-04 17:49 | 39.86328 | 2.92555 | 6945 ft | 257 kts | 184° |
| 2026-05-04 17:49 | 39.84582 | 2.92580 | 6925 ft | 245 kts | 184° |
| 2026-05-04 17:49 | 39.82940 | 2.92613 | 6900 ft | 232 kts | 184° |
| 2026-05-04 17:50 | 39.81345 | 2.92658 | 6942 ft | 228 kts | 184° |
| 2026-05-04 17:50 | 39.79746 | 2.92714 | 6950 ft | 233 kts | 180° |
| 2026-05-04 17:50 | 39.78181 | 2.93405 | 6934 ft | 248 kts | 150° |
| 2026-05-04 17:50 | 39.76993 | 2.95112 | 6660 ft | 267 kts | 122° |
| 2026-05-04 17:51 | 39.76520 | 2.97490 | 6327 ft | 279 kts | 97° |
| 2026-05-04 17:51 | 39.76516 | 3.00015 | 6000 ft | 282 kts | 92° |
| 2026-05-04 17:51 | 39.76564 | 3.02430 | 5671 ft | 283 kts | 92° |
| 2026-05-04 17:51 | 39.76617 | 3.04969 | 5369 ft | 277 kts | 91° |
| 2026-05-04 17:52 | 39.76624 | 3.07421 | 5001 ft | 271 kts | 99° |
| 2026-05-04 17:52 | 39.76024 | 3.09663 | 4609 ft | 257 kts | 131° |
| 2026-05-04 17:52 | 39.74729 | 3.11133 | 4239 ft | 236 kts | 163° |
| 2026-05-04 17:52 | 39.73217 | 3.11307 | 3885 ft | 216 kts | 202° |
| 2026-05-04 17:53 | 39.72060 | 3.10209 | 3553 ft | 206 kts | 231° |
| 2026-05-04 17:53 | 39.71171 | 3.08769 | 3242 ft | 202 kts | 233° |
| 2026-05-04 17:53 | 39.70368 | 3.07305 | 3032 ft | 193 kts | 236° |
| 2026-05-04 17:53 | 39.69652 | 3.05874 | 2974 ft | 185 kts | 237° |
| 2026-05-04 17:54 | 39.68977 | 3.04478 | 2988 ft | 184 kts | 238° |
| 2026-05-04 17:54 | 39.68296 | 3.03049 | 2984 ft | 187 kts | 237° |
| 2026-05-04 17:54 | 39.67610 | 3.01604 | 2968 ft | 188 kts | 237° |
| 2026-05-04 17:54 | 39.66928 | 3.00163 | 2975 ft | 186 kts | 237° |
| 2026-05-04 17:55 | 39.66267 | 2.98765 | 2970 ft | 178 kts | 238° |
| 2026-05-04 17:55 | 39.65624 | 2.97408 | 2956 ft | 174 kts | 237° |
| 2026-05-04 17:55 | 39.65005 | 2.96101 | 2953 ft | 170 kts | 238° |
| 2026-05-04 17:55 | 39.64399 | 2.94820 | 3001 ft | 166 kts | 238° |
| 2026-05-04 17:56 | 39.63798 | 2.93532 | 2973 ft | 167 kts | 238° |
| 2026-05-04 17:56 | 39.63194 | 2.92249 | 2843 ft | 167 kts | 238° |
| 2026-05-04 17:56 | 39.62600 | 2.90998 | 2628 ft | 158 kts | 237° |
| 2026-05-04 17:56 | 39.62043 | 2.89828 | 2471 ft | 148 kts | 238° |
| 2026-05-04 17:57 | 39.61507 | 2.88701 | 2256 ft | 144 kts | 237° |
| 2026-05-04 17:57 | 39.60998 | 2.87633 | 2066 ft | 134 kts | 237° |
| 2026-05-04 17:57 | 39.60500 | 2.86588 | 1887 ft | 138 kts | 237° |
| 2026-05-04 17:57 | 39.59998 | 2.85530 | 1719 ft | 141 kts | 236° |
| 2026-05-04 17:58 | 39.59478 | 2.84441 | 1524 ft | 146 kts | 235° |
| 2026-05-04 17:58 | 39.58928 | 2.83341 | 1310 ft | 148 kts | 234° |
| 2026-05-04 17:58 | 39.58376 | 2.82212 | 1036 ft | 147 kts | 238° |
| 2026-05-04 17:58 | 39.57889 | 2.81105 | 952 ft | 137 kts | 237° |
| 2026-05-04 17:59 | 39.57393 | 2.80088 | 793 ft | 132 kts | 234° |
| 2026-05-04 17:59 | 39.56895 | 2.79097 | 594 ft | 135 kts | 238° |
| 2026-05-04 17:59 | 39.55948 | 2.76992 | 230 ft | 134 kts | 237° |
| 2026-05-04 18:00 | 39.55479 | 2.76021 | 56 ft | 124 kts | 237° |
| 2026-05-04 18:00 | 39.55057 | 2.75149 | 29 ft | 97 kts | 238° |
| 2026-05-04 18:00 | 39.54808 | 2.74610 | 33 ft | 59 kts | 238° |
| 2026-05-04 18:00 | 39.54672 | 2.74324 | 35 ft | 17 kts | 239° |
| 2026-05-04 18:01 | 39.54606 | 2.74178 | 36 ft | 26 kts | 243° |
| 2026-05-04 18:01 | 39.54557 | 2.73967 | 35 ft | 24 kts | 262° |
| 2026-05-04 18:01 | 39.54551 | 2.73830 | 34 ft | 8 kts | 269° |
| 2026-05-04 18:02 | 39.54604 | 2.73747 | 35 ft | 8 kts | 41° |
| 2026-05-04 18:02 | 39.54636 | 2.73802 | 35 ft | 8 kts | 57° |
| 2026-05-04 18:02 | 39.54662 | 2.73861 | 35 ft | 7 kts | 60° |
| 2026-05-04 18:02 | 39.54687 | 2.73917 | 35 ft | 7 kts | 60° |
| 2026-05-04 18:03 | 39.54712 | 2.73971 | 35 ft | 7 kts | 58° |
| 2026-05-04 18:03 | 39.54738 | 2.74023 | 35 ft | 7 kts | 58° |
| 2026-05-04 18:03 | 39.54762 | 2.74075 | 35 ft | 7 kts | 59° |
| 2026-05-04 18:03 | 39.54786 | 2.74126 | 35 ft | 7 kts | 53° |
| 2026-05-04 18:04 | 39.54825 | 2.74134 | 35 ft | 7 kts | 328° |
| 2026-05-04 18:04 | 39.54861 | 2.74099 | 35 ft | 6 kts | 324° |
| 2026-05-04 18:04 | 39.54957 | 2.74023 | 35 ft | 11 kts | 330° |
| 2026-05-04 18:05 | 39.55026 | 2.73970 | 35 ft | 12 kts | 328° |
| 2026-05-04 18:05 | 39.55095 | 2.73914 | 35 ft | 12 kts | 328° |
| 2026-05-04 18:05 | 39.55162 | 2.73861 | 35 ft | 11 kts | 328° |
| 2026-05-04 18:05 | 39.55227 | 2.73808 | 35 ft | 11 kts | 328° |
| 2026-05-04 18:06 | 39.55354 | 2.73709 | 35 ft | 10 kts | 329° |
| 2026-05-04 18:06 | 39.55416 | 2.73659 | 33 ft | 11 kts | 329° |
| 2026-05-04 18:06 | 39.55487 | 2.73600 | 30 ft | 13 kts | 317° |
| 2026-05-04 18:07 | 39.55476 | 2.73514 | 29 ft | 10 kts | 239° |
| 2026-05-04 18:07 | 39.55439 | 2.73437 | 30 ft | 10 kts | 238° |
| 2026-05-04 18:07 | 39.55403 | 2.73361 | 29 ft | 10 kts | 238° |
| 2026-05-04 18:07 | 39.55368 | 2.73287 | 30 ft | 10 kts | 238° |
| 2026-05-04 18:08 | 39.55333 | 2.73214 | 30 ft | 10 kts | 238° |
| 2026-05-04 18:08 | 39.55294 | 2.73130 | 30 ft | 12 kts | 238° |
| 2026-05-04 18:08 | 39.55264 | 2.73068 | 30 ft | 13 kts | 239° |
| 2026-05-04 18:08 | 39.55202 | 2.72935 | 30 ft | 13 kts | 238° |
| 2026-05-04 18:09 | 39.55125 | 2.72772 | 30 ft | 12 kts | 238° |
| 2026-05-04 18:09 | 39.55045 | 2.72602 | 30 ft | 5 kts | 238° |
| 2026-05-04 18:10 | 39.55024 | 2.72590 | 30 ft | 3 kts | 169° |
| 2026-05-04 18:10 | 39.55002 | 2.72603 | 31 ft | 3 kts | 149° |
| 2026-05-04 18:10 | 39.54981 | 2.72619 | 31 ft | 3 kts | 148° |
| 2026-05-04 18:10 | 39.54968 | 2.72629 | 32 ft | 0 kts | 148° |